sensor_id;sensor_type;location;lat;lon;timestamp;temperature;humidity
13585;DHT22;6863;48.402;9.994;2023-02-17T00:01:13;8.20;92.70
13585;DHT22;6863;48.402;9.994;2023-02-17T00:03:40;8.20;92.50
13585;DHT22;6863;48.402;9.994;2023-02-17T00:06:09;8.20;92.60
13585;DHT22;6863;48.402;9.994;2023-02-17T00:08:36;8.20;92.50
13585;DHT22;6863;48.402;9.994;2023-02-17T00:11:02;8.20;92.50
13585;DHT22;6863;48.402;9.994;2023-02-17T00:13:28;8.20;92.10
13585;DHT22;6863;48.402;9.994;2023-02-17T00:15:53;8.20;92.00
13585;DHT22;6863;48.402;9.994;2023-02-17T00:18:19;8.20;91.90
13585;DHT22;6863;48.402;9.994;2023-02-17T00:20:44;8.20;92.00
13585;DHT22;6863;48.402;9.994;2023-02-17T00:23:10;8.10;92.10
13585;DHT22;6863;48.402;9.994;2023-02-17T00:25:37;8.10;92.30
13585;DHT22;6863;48.402;9.994;2023-02-17T00:28:03;8.00;92.50
13585;DHT22;6863;48.402;9.994;2023-02-17T00:30:28;8.10;92.60
13585;DHT22;6863;48.402;9.994;2023-02-17T00:32:54;8.00;92.70
13585;DHT22;6863;48.402;9.994;2023-02-17T00:35:20;8.00;92.90
13585;DHT22;6863;48.402;9.994;2023-02-17T00:37:45;8.00;92.90
13585;DHT22;6863;48.402;9.994;2023-02-17T00:40:12;8.00;93.10
13585;DHT22;6863;48.402;9.994;2023-02-17T00:42:38;8.00;93.20
13585;DHT22;6863;48.402;9.994;2023-02-17T00:45:04;8.00;93.40
13585;DHT22;6863;48.402;9.994;2023-02-17T00:47:30;7.90;93.50
13585;DHT22;6863;48.402;9.994;2023-02-17T00:49:55;7.90;93.40
13585;DHT22;6863;48.402;9.994;2023-02-17T00:52:21;7.90;93.10
13585;DHT22;6863;48.402;9.994;2023-02-17T00:54:46;8.00;93.30
13585;DHT22;6863;48.402;9.994;2023-02-17T00:57:12;7.90;93.30
13585;DHT22;6863;48.402;9.994;2023-02-17T00:59:37;7.90;93.40
13585;DHT22;6863;48.402;9.994;2023-02-17T01:02:03;7.90;93.60
13585;DHT22;6863;48.402;9.994;2023-02-17T01:04:29;7.90;93.50
13585;DHT22;6863;48.402;9.994;2023-02-17T01:06:54;7.90;93.40
13585;DHT22;6863;48.402;9.994;2023-02-17T01:09:20;7.90;93.40
13585;DHT22;6863;48.402;9.994;2023-02-17T01:11:45;7.90;93.10
13585;DHT22;6863;48.402;9.994;2023-02-17T01:14:12;7.90;93.10
13585;DHT22;6863;48.402;9.994;2023-02-17T01:16:40;8.00;92.90
13585;DHT22;6863;48.402;9.994;2023-02-17T01:19:11;7.90;93.00
13585;DHT22;6863;48.402;9.994;2023-02-17T01:21:38;7.90;93.00
13585;DHT22;6863;48.402;9.994;2023-02-17T01:24:05;7.80;93.10
13585;DHT22;6863;48.402;9.994;2023-02-17T01:26:32;7.80;93.10
13585;DHT22;6863;48.402;9.994;2023-02-17T01:28:59;7.80;93.10
13585;DHT22;6863;48.402;9.994;2023-02-17T01:31:25;7.90;93.10
13585;DHT22;6863;48.402;9.994;2023-02-17T01:33:56;7.90;93.10
13585;DHT22;6863;48.402;9.994;2023-02-17T01:36:22;7.90;93.10
13585;DHT22;6863;48.402;9.994;2023-02-17T01:38:48;7.80;93.20
13585;DHT22;6863;48.402;9.994;2023-02-17T01:41:15;7.90;93.20
13585;DHT22;6863;48.402;9.994;2023-02-17T01:43:41;7.90;93.20
13585;DHT22;6863;48.402;9.994;2023-02-17T01:46:08;7.90;93.30
13585;DHT22;6863;48.402;9.994;2023-02-17T01:54:02;7.80;93.90
13585;DHT22;6863;48.402;9.994;2023-02-17T01:56:30;7.70;94.10
13585;DHT22;6863;48.402;9.994;2023-02-17T01:59:02;7.70;94.20
13585;DHT22;6863;48.402;9.994;2023-02-17T02:01:29;7.60;94.50
13585;DHT22;6863;48.402;9.994;2023-02-17T02:03:57;7.60;94.60
13585;DHT22;6863;48.402;9.994;2023-02-17T02:06:26;7.60;94.70
13585;DHT22;6863;48.402;9.994;2023-02-17T02:09:18;7.60;94.80
13585;DHT22;6863;48.402;9.994;2023-02-17T02:11:47;7.60;94.90
13585;DHT22;6863;48.402;9.994;2023-02-17T02:14:13;7.50;94.90
13585;DHT22;6863;48.402;9.994;2023-02-17T02:17:00;7.50;95.00
13585;DHT22;6863;48.402;9.994;2023-02-17T02:27:49;7.50;95.00
13585;DHT22;6863;48.402;9.994;2023-02-17T02:33:21;7.50;95.00
13585;DHT22;6863;48.402;9.994;2023-02-17T02:35:56;7.50;95.10
13585;DHT22;6863;48.402;9.994;2023-02-17T02:38:37;7.40;95.50
13585;DHT22;6863;48.402;9.994;2023-02-17T02:41:10;7.40;95.20
13585;DHT22;6863;48.402;9.994;2023-02-17T02:43:40;7.40;95.20
13585;DHT22;6863;48.402;9.994;2023-02-17T02:46:06;7.40;95.30
13585;DHT22;6863;48.402;9.994;2023-02-17T02:48:32;7.30;95.40
13585;DHT22;6863;48.402;9.994;2023-02-17T02:56:29;7.20;95.70
13585;DHT22;6863;48.402;9.994;2023-02-17T03:02:03;7.20;95.80
13585;DHT22;6863;48.402;9.994;2023-02-17T03:09:49;7.30;96.00
13585;DHT22;6863;48.402;9.994;2023-02-17T03:12:16;7.20;95.90
13585;DHT22;6863;48.402;9.994;2023-02-17T03:14:42;7.20;96.00
13585;DHT22;6863;48.402;9.994;2023-02-17T03:17:08;7.20;96.00
13585;DHT22;6863;48.402;9.994;2023-02-17T03:19:33;7.20;96.00
13585;DHT22;6863;48.402;9.994;2023-02-17T03:22:21;7.20;95.80
13585;DHT22;6863;48.402;9.994;2023-02-17T03:24:48;7.20;95.80
13585;DHT22;6863;48.402;9.994;2023-02-17T03:27:13;7.20;95.70
13585;DHT22;6863;48.402;9.994;2023-02-17T03:29:39;7.20;95.60
13585;DHT22;6863;48.402;9.994;2023-02-17T03:32:05;7.30;95.50
13585;DHT22;6863;48.402;9.994;2023-02-17T03:34:34;7.20;95.50
13585;DHT22;6863;48.402;9.994;2023-02-17T03:37:00;7.30;95.30
13585;DHT22;6863;48.402;9.994;2023-02-17T03:39:26;7.30;95.30
13585;DHT22;6863;48.402;9.994;2023-02-17T03:41:52;7.30;95.10
13585;DHT22;6863;48.402;9.994;2023-02-17T03:44:18;7.30;94.80
13585;DHT22;6863;48.402;9.994;2023-02-17T03:46:44;7.30;94.80
13585;DHT22;6863;48.402;9.994;2023-02-17T03:49:13;7.40;94.60
13585;DHT22;6863;48.402;9.994;2023-02-17T03:51:39;7.40;94.80
13585;DHT22;6863;48.402;9.994;2023-02-17T03:54:05;7.40;94.40
13585;DHT22;6863;48.402;9.994;2023-02-17T03:56:31;7.40;94.40
13585;DHT22;6863;48.402;9.994;2023-02-17T03:58:56;7.30;94.30
13585;DHT22;6863;48.402;9.994;2023-02-17T04:01:22;7.40;94.10
13585;DHT22;6863;48.402;9.994;2023-02-17T04:03:48;7.40;94.20
13585;DHT22;6863;48.402;9.994;2023-02-17T04:06:14;7.40;94.20
13585;DHT22;6863;48.402;9.994;2023-02-17T04:08:39;7.50;94.00
13585;DHT22;6863;48.402;9.994;2023-02-17T04:11:07;7.50;93.80
13585;DHT22;6863;48.402;9.994;2023-02-17T04:13:34;7.50;93.80
13585;DHT22;6863;48.402;9.994;2023-02-17T04:16:00;7.50;93.70
13585;DHT22;6863;48.402;9.994;2023-02-17T04:18:27;7.60;93.60
13585;DHT22;6863;48.402;9.994;2023-02-17T04:20:53;7.50;93.50
13585;DHT22;6863;48.402;9.994;2023-02-17T04:23:19;7.50;93.60
13585;DHT22;6863;48.402;9.994;2023-02-17T04:25:46;7.60;93.50
13585;DHT22;6863;48.402;9.994;2023-02-17T04:28:13;7.50;93.40
13585;DHT22;6863;48.402;9.994;2023-02-17T04:30:39;7.60;93.50
13585;DHT22;6863;48.402;9.994;2023-02-17T04:33:05;7.60;93.40
13585;DHT22;6863;48.402;9.994;2023-02-17T04:35:30;7.60;93.50
13585;DHT22;6863;48.402;9.994;2023-02-17T04:37:56;7.60;93.50
13585;DHT22;6863;48.402;9.994;2023-02-17T04:40:22;7.50;93.50
13585;DHT22;6863;48.402;9.994;2023-02-17T04:42:47;7.50;93.60
13585;DHT22;6863;48.402;9.994;2023-02-17T04:45:13;7.50;93.70
13585;DHT22;6863;48.402;9.994;2023-02-17T04:47:39;7.50;93.60
13585;DHT22;6863;48.402;9.994;2023-02-17T04:50:07;7.50;93.70
13585;DHT22;6863;48.402;9.994;2023-02-17T04:52:33;7.50;93.90
13585;DHT22;6863;48.402;9.994;2023-02-17T04:54:59;7.50;93.90
13585;DHT22;6863;48.402;9.994;2023-02-17T04:57:25;7.50;94.00
13585;DHT22;6863;48.402;9.994;2023-02-17T04:59:50;7.50;93.90
13585;DHT22;6863;48.402;9.994;2023-02-17T05:02:16;7.50;94.00
13585;DHT22;6863;48.402;9.994;2023-02-17T05:04:45;7.50;93.90
13585;DHT22;6863;48.402;9.994;2023-02-17T05:07:11;7.50;93.80
13585;DHT22;6863;48.402;9.994;2023-02-17T05:09:36;7.60;93.60
13585;DHT22;6863;48.402;9.994;2023-02-17T05:12:02;7.70;93.30
13585;DHT22;6863;48.402;9.994;2023-02-17T05:14:30;7.70;93.20
13585;DHT22;6863;48.402;9.994;2023-02-17T05:16:55;7.70;93.10
13585;DHT22;6863;48.402;9.994;2023-02-17T05:19:21;7.80;93.10
13585;DHT22;6863;48.402;9.994;2023-02-17T05:21:46;7.80;92.90
13585;DHT22;6863;48.402;9.994;2023-02-17T05:24:12;7.80;92.90
13585;DHT22;6863;48.402;9.994;2023-02-17T05:26:37;7.80;92.80
13585;DHT22;6863;48.402;9.994;2023-02-17T05:29:03;7.80;92.80
13585;DHT22;6863;48.402;9.994;2023-02-17T05:31:29;7.80;92.80
13585;DHT22;6863;48.402;9.994;2023-02-17T05:33:54;7.80;92.80
13585;DHT22;6863;48.402;9.994;2023-02-17T05:36:20;7.80;92.90
13585;DHT22;6863;48.402;9.994;2023-02-17T05:38:45;7.90;92.90
13585;DHT22;6863;48.402;9.994;2023-02-17T05:41:14;7.90;92.90
13585;DHT22;6863;48.402;9.994;2023-02-17T05:43:41;7.90;93.00
13585;DHT22;6863;48.402;9.994;2023-02-17T05:46:07;7.90;93.00
13585;DHT22;6863;48.402;9.994;2023-02-17T05:48:33;7.80;93.00
13585;DHT22;6863;48.402;9.994;2023-02-17T05:50:59;7.90;92.90
13585;DHT22;6863;48.402;9.994;2023-02-17T05:53:24;7.90;92.80
13585;DHT22;6863;48.402;9.994;2023-02-17T05:55:50;7.90;92.80
13585;DHT22;6863;48.402;9.994;2023-02-17T05:58:15;7.90;92.90
13585;DHT22;6863;48.402;9.994;2023-02-17T06:00:41;8.00;92.90
13585;DHT22;6863;48.402;9.994;2023-02-17T06:03:07;8.00;93.00
13585;DHT22;6863;48.402;9.994;2023-02-17T06:05:32;7.90;92.90
13585;DHT22;6863;48.402;9.994;2023-02-17T06:07:58;8.00;93.00
13585;DHT22;6863;48.402;9.994;2023-02-17T06:10:23;7.90;92.90
13585;DHT22;6863;48.402;9.994;2023-02-17T06:12:49;7.90;93.00
13585;DHT22;6863;48.402;9.994;2023-02-17T06:15:15;7.90;93.10
13585;DHT22;6863;48.402;9.994;2023-02-17T06:17:40;7.90;93.20
13585;DHT22;6863;48.402;9.994;2023-02-17T06:20:07;7.90;93.20
13585;DHT22;6863;48.402;9.994;2023-02-17T06:22:32;7.90;93.30
13585;DHT22;6863;48.402;9.994;2023-02-17T06:24:58;7.90;93.40
13585;DHT22;6863;48.402;9.994;2023-02-17T06:27:24;7.80;93.50
13585;DHT22;6863;48.402;9.994;2023-02-17T06:29:49;7.80;93.60
13585;DHT22;6863;48.402;9.994;2023-02-17T06:32:15;7.90;93.60
13585;DHT22;6863;48.402;9.994;2023-02-17T06:34:41;7.80;93.70
13585;DHT22;6863;48.402;9.994;2023-02-17T06:37:06;7.80;93.80
13585;DHT22;6863;48.402;9.994;2023-02-17T06:39:35;7.80;93.80
13585;DHT22;6863;48.402;9.994;2023-02-17T06:44:32;7.90;93.70
13585;DHT22;6863;48.402;9.994;2023-02-17T06:46:58;8.00;94.00
13585;DHT22;6863;48.402;9.994;2023-02-17T06:49:24;8.10;93.60
13585;DHT22;6863;48.402;9.994;2023-02-17T06:51:50;8.10;93.60
13585;DHT22;6863;48.402;9.994;2023-02-17T06:54:15;8.10;93.50
13585;DHT22;6863;48.402;9.994;2023-02-17T06:56:41;8.10;93.50
13585;DHT22;6863;48.402;9.994;2023-02-17T06:59:06;8.10;93.50
13585;DHT22;6863;48.402;9.994;2023-02-17T07:01:32;8.20;93.50
13585;DHT22;6863;48.402;9.994;2023-02-17T07:03:58;8.30;93.60
13585;DHT22;6863;48.402;9.994;2023-02-17T07:06:25;8.30;93.50
13585;DHT22;6863;48.402;9.994;2023-02-17T07:08:51;8.30;93.50
13585;DHT22;6863;48.402;9.994;2023-02-17T07:11:17;8.40;93.50
13585;DHT22;6863;48.402;9.994;2023-02-17T07:13:43;8.40;93.50
13585;DHT22;6863;48.402;9.994;2023-02-17T07:16:10;8.50;93.50
13585;DHT22;6863;48.402;9.994;2023-02-17T07:18:36;8.60;93.40
13585;DHT22;6863;48.402;9.994;2023-02-17T07:21:06;8.60;93.40
13585;DHT22;6863;48.402;9.994;2023-02-17T07:23:32;8.70;93.40
13585;DHT22;6863;48.402;9.994;2023-02-17T07:26:05;8.70;93.40
13585;DHT22;6863;48.402;9.994;2023-02-17T07:28:32;8.80;93.40
13585;DHT22;6863;48.402;9.994;2023-02-17T07:31:07;8.90;93.20
13585;DHT22;6863;48.402;9.994;2023-02-17T07:33:34;8.90;93.20
13585;DHT22;6863;48.402;9.994;2023-02-17T07:36:05;9.00;93.20
13585;DHT22;6863;48.402;9.994;2023-02-17T07:38:30;9.10;93.00
13585;DHT22;6863;48.402;9.994;2023-02-17T07:40:56;9.10;93.00
13585;DHT22;6863;48.402;9.994;2023-02-17T07:43:21;9.10;92.90
13585;DHT22;6863;48.402;9.994;2023-02-17T07:45:47;9.30;92.80
13585;DHT22;6863;48.402;9.994;2023-02-17T07:48:12;9.40;92.60
13585;DHT22;6863;48.402;9.994;2023-02-17T07:50:38;9.30;92.60
13585;DHT22;6863;48.402;9.994;2023-02-17T07:53:04;9.30;92.60
13585;DHT22;6863;48.402;9.994;2023-02-17T07:55:29;9.40;92.60
13585;DHT22;6863;48.402;9.994;2023-02-17T07:57:55;9.40;92.40
13585;DHT22;6863;48.402;9.994;2023-02-17T08:00:20;9.50;92.40
13585;DHT22;6863;48.402;9.994;2023-02-17T08:02:46;9.70;92.10
13585;DHT22;6863;48.402;9.994;2023-02-17T08:05:12;9.70;92.00
13585;DHT22;6863;48.402;9.994;2023-02-17T08:07:37;9.80;92.00
13585;DHT22;6863;48.402;9.994;2023-02-17T08:10:03;9.90;91.80
13585;DHT22;6863;48.402;9.994;2023-02-17T08:12:47;9.90;91.80
13585;DHT22;6863;48.402;9.994;2023-02-17T08:15:32;10.00;91.10
13585;DHT22;6863;48.402;9.994;2023-02-17T08:17:58;10.00;91.10
13585;DHT22;6863;48.402;9.994;2023-02-17T08:20:25;9.90;91.70
13585;DHT22;6863;48.402;9.994;2023-02-17T08:22:51;9.80;92.00
13585;DHT22;6863;48.402;9.994;2023-02-17T08:25:17;9.90;92.00
13585;DHT22;6863;48.402;9.994;2023-02-17T08:27:43;9.90;92.00
13585;DHT22;6863;48.402;9.994;2023-02-17T08:30:10;10.00;91.50
13585;DHT22;6863;48.402;9.994;2023-02-17T08:32:35;10.00;91.40
13585;DHT22;6863;48.402;9.994;2023-02-17T08:35:01;10.40;91.00
13585;DHT22;6863;48.402;9.994;2023-02-17T08:37:27;10.70;90.50
13585;DHT22;6863;48.402;9.994;2023-02-17T08:39:54;10.80;90.20
13585;DHT22;6863;48.402;9.994;2023-02-17T08:42:20;11.70;89.00
13585;DHT22;6863;48.402;9.994;2023-02-17T08:44:45;12.70;85.50
13585;DHT22;6863;48.402;9.994;2023-02-17T08:47:11;13.50;81.80
13585;DHT22;6863;48.402;9.994;2023-02-17T08:49:36;14.20;79.40
13585;DHT22;6863;48.402;9.994;2023-02-17T08:52:03;15.40;75.70
13585;DHT22;6863;48.402;9.994;2023-02-17T08:54:28;14.70;72.80
13585;DHT22;6863;48.402;9.994;2023-02-17T08:56:54;13.80;75.50
13585;DHT22;6863;48.402;9.994;2023-02-17T08:59:20;13.40;77.40
13585;DHT22;6863;48.402;9.994;2023-02-17T09:01:45;13.50;78.10
13585;DHT22;6863;48.402;9.994;2023-02-17T09:04:13;13.70;77.90
13585;DHT22;6863;48.402;9.994;2023-02-17T09:06:42;14.00;77.00
13585;DHT22;6863;48.402;9.994;2023-02-17T09:09:10;14.00;76.90
13585;DHT22;6863;48.402;9.994;2023-02-17T09:11:36;14.00;76.70
13585;DHT22;6863;48.402;9.994;2023-02-17T09:14:02;13.10;79.10
13585;DHT22;6863;48.402;9.994;2023-02-17T09:16:28;12.80;81.40
13585;DHT22;6863;48.402;9.994;2023-02-17T09:18:54;13.50;80.40
13585;DHT22;6863;48.402;9.994;2023-02-17T09:21:20;13.70;79.20
13585;DHT22;6863;48.402;9.994;2023-02-17T09:23:47;14.10;78.10
13585;DHT22;6863;48.402;9.994;2023-02-17T09:26:14;14.20;77.70
13585;DHT22;6863;48.402;9.994;2023-02-17T09:28:40;13.90;78.40
13585;DHT22;6863;48.402;9.994;2023-02-17T09:31:24;13.60;79.80
13585;DHT22;6863;48.402;9.994;2023-02-17T09:33:50;13.30;81.00
13585;DHT22;6863;48.402;9.994;2023-02-17T09:36:19;13.80;80.20
13585;DHT22;6863;48.402;9.994;2023-02-17T09:38:45;14.20;79.40
13585;DHT22;6863;48.402;9.994;2023-02-17T09:41:25;14.00;79.60
13585;DHT22;6863;48.402;9.994;2023-02-17T09:43:55;13.60;80.40
13585;DHT22;6863;48.402;9.994;2023-02-17T09:46:26;13.40;81.40
13585;DHT22;6863;48.402;9.994;2023-02-17T09:48:55;13.20;82.20
13585;DHT22;6863;48.402;9.994;2023-02-17T09:51:42;13.10;83.20
13585;DHT22;6863;48.402;9.994;2023-02-17T09:54:13;13.20;83.10
13585;DHT22;6863;48.402;9.994;2023-02-17T09:56:41;13.00;83.40
13585;DHT22;6863;48.402;9.994;2023-02-17T09:59:40;13.00;84.60
13585;DHT22;6863;48.402;9.994;2023-02-17T10:02:20;12.60;84.90
13585;DHT22;6863;48.402;9.994;2023-02-17T10:04:49;12.50;86.80
13585;DHT22;6863;48.402;9.994;2023-02-17T10:07:29;12.60;87.30
13585;DHT22;6863;48.402;9.994;2023-02-17T10:10:08;12.40;88.30
13585;DHT22;6863;48.402;9.994;2023-02-17T10:12:42;12.30;88.50
13585;DHT22;6863;48.402;9.994;2023-02-17T10:15:21;12.30;89.20
13585;DHT22;6863;48.402;9.994;2023-02-17T10:17:59;12.20;89.60
13585;DHT22;6863;48.402;9.994;2023-02-17T10:23:12;11.80;90.80
13585;DHT22;6863;48.402;9.994;2023-02-17T10:31:59;11.60;91.80
13585;DHT22;6863;48.402;9.994;2023-02-17T10:34:35;11.50;92.30
13585;DHT22;6863;48.402;9.994;2023-02-17T10:37:04;11.60;92.50
13585;DHT22;6863;48.402;9.994;2023-02-17T10:39:54;11.50;92.70
13585;DHT22;6863;48.402;9.994;2023-02-17T10:42:26;11.60;93.10
13585;DHT22;6863;48.402;9.994;2023-02-17T10:44:58;11.60;93.10
13585;DHT22;6863;48.402;9.994;2023-02-17T10:47:30;11.50;94.10
13585;DHT22;6863;48.402;9.994;2023-02-17T10:49:57;11.50;94.90
13585;DHT22;6863;48.402;9.994;2023-02-17T10:52:45;11.50;95.80
13585;DHT22;6863;48.402;9.994;2023-02-17T10:58:13;11.40;97.00
13585;DHT22;6863;48.402;9.994;2023-02-17T11:00:46;11.50;96.30
13585;DHT22;6863;48.402;9.994;2023-02-17T11:03:23;11.80;96.80
13585;DHT22;6863;48.402;9.994;2023-02-17T11:06:04;12.10;96.50
13585;DHT22;6863;48.402;9.994;2023-02-17T11:08:39;12.20;95.70
13585;DHT22;6863;48.402;9.994;2023-02-17T11:11:11;12.30;95.60
13585;DHT22;6863;48.402;9.994;2023-02-17T11:16:41;12.40;95.10
13585;DHT22;6863;48.402;9.994;2023-02-17T11:19:54;12.70;94.70
13585;DHT22;6863;48.402;9.994;2023-02-17T11:25:34;14.70;90.60
13585;DHT22;6863;48.402;9.994;2023-02-17T11:28:05;14.20;90.90
13585;DHT22;6863;48.402;9.994;2023-02-17T11:30:32;13.60;92.00
13585;DHT22;6863;48.402;9.994;2023-02-17T11:33:09;13.10;92.70
13585;DHT22;6863;48.402;9.994;2023-02-17T11:38:17;12.80;93.50
13585;DHT22;6863;48.402;9.994;2023-02-17T11:43:21;12.50;94.10
13585;DHT22;6863;48.402;9.994;2023-02-17T11:46:20;12.70;94.20
13585;DHT22;6863;48.402;9.994;2023-02-17T11:49:06;13.20;93.40
13585;DHT22;6863;48.402;9.994;2023-02-17T12:11:19;15.50;85.80
13585;DHT22;6863;48.402;9.994;2023-02-17T12:22:28;14.10;91.00
13585;DHT22;6863;48.402;9.994;2023-02-17T12:25:02;13.90;92.00
13585;DHT22;6863;48.402;9.994;2023-02-17T12:36:02;13.40;94.00
13585;DHT22;6863;48.402;9.994;2023-02-17T12:38:33;13.40;94.40
13585;DHT22;6863;48.402;9.994;2023-02-17T12:43:48;13.30;95.00
13585;DHT22;6863;48.402;9.994;2023-02-17T12:46:26;13.10;95.70
13585;DHT22;6863;48.402;9.994;2023-02-17T12:48:56;13.00;95.70
13585;DHT22;6863;48.402;9.994;2023-02-17T12:51:34;12.80;95.90
13585;DHT22;6863;48.402;9.994;2023-02-17T12:59:40;12.60;96.20
13585;DHT22;6863;48.402;9.994;2023-02-17T13:02:10;12.60;96.30
13585;DHT22;6863;48.402;9.994;2023-02-17T13:04:37;12.60;96.50
13585;DHT22;6863;48.402;9.994;2023-02-17T13:09:35;12.50;97.00
13585;DHT22;6863;48.402;9.994;2023-02-17T13:12:28;12.30;98.50
13585;DHT22;6863;48.402;9.994;2023-02-17T13:14:58;12.00;99.60
13585;DHT22;6863;48.402;9.994;2023-02-17T13:17:36;11.90;99.90
13585;DHT22;6863;48.402;9.994;2023-02-17T13:22:34;11.90;99.90
13585;DHT22;6863;48.402;9.994;2023-02-17T13:25:00;11.90;99.90
13585;DHT22;6863;48.402;9.994;2023-02-17T13:32:33;11.70;99.90
13585;DHT22;6863;48.402;9.994;2023-02-17T13:37:48;11.70;99.90
13585;DHT22;6863;48.402;9.994;2023-02-17T13:42:44;11.70;99.90
13585;DHT22;6863;48.402;9.994;2023-02-17T13:45:30;11.80;99.90
13585;DHT22;6863;48.402;9.994;2023-02-17T13:48:09;12.00;99.90
13585;DHT22;6863;48.402;9.994;2023-02-17T13:50:38;12.40;99.90
13585;DHT22;6863;48.402;9.994;2023-02-17T13:53:35;12.60;99.90
13585;DHT22;6863;48.402;9.994;2023-02-17T13:58:38;13.10;99.90
13585;DHT22;6863;48.402;9.994;2023-02-17T14:01:06;13.20;99.90
13585;DHT22;6863;48.402;9.994;2023-02-17T14:06:04;13.10;99.90
13585;DHT22;6863;48.402;9.994;2023-02-17T14:08:38;13.10;99.90
13585;DHT22;6863;48.402;9.994;2023-02-17T14:11:12;13.20;99.90
13585;DHT22;6863;48.402;9.994;2023-02-17T14:13:42;13.10;99.90
13585;DHT22;6863;48.402;9.994;2023-02-17T14:21:26;13.10;99.90
13585;DHT22;6863;48.402;9.994;2023-02-17T14:23:54;13.00;99.90
13585;DHT22;6863;48.402;9.994;2023-02-17T14:26:43;13.00;99.90
13585;DHT22;6863;48.402;9.994;2023-02-17T14:29:12;12.90;99.90
13585;DHT22;6863;48.402;9.994;2023-02-17T14:31:39;12.80;99.90
13585;DHT22;6863;48.402;9.994;2023-02-17T14:34:06;12.80;99.90
13585;DHT22;6863;48.402;9.994;2023-02-17T14:36:37;12.70;99.90
13585;DHT22;6863;48.402;9.994;2023-02-17T14:39:08;12.80;99.90
13585;DHT22;6863;48.402;9.994;2023-02-17T14:41:37;12.90;99.90
13585;DHT22;6863;48.402;9.994;2023-02-17T14:44:05;13.10;99.90
13585;DHT22;6863;48.402;9.994;2023-02-17T14:46:32;13.00;99.90
13585;DHT22;6863;48.402;9.994;2023-02-17T14:49:00;13.10;99.90
13585;DHT22;6863;48.402;9.994;2023-02-17T14:51:31;13.10;99.90
13585;DHT22;6863;48.402;9.994;2023-02-17T14:54:00;13.00;99.90
13585;DHT22;6863;48.402;9.994;2023-02-17T14:56:33;13.00;99.90
13585;DHT22;6863;48.402;9.994;2023-02-17T14:59:00;13.00;99.90
13585;DHT22;6863;48.402;9.994;2023-02-17T15:01:26;12.90;99.90
13585;DHT22;6863;48.402;9.994;2023-02-17T15:03:52;12.80;99.90
13585;DHT22;6863;48.402;9.994;2023-02-17T15:06:24;12.90;99.90
13585;DHT22;6863;48.402;9.994;2023-02-17T15:08:50;13.00;99.90
13585;DHT22;6863;48.402;9.994;2023-02-17T15:11:17;13.00;99.90
13585;DHT22;6863;48.402;9.994;2023-02-17T15:13:43;13.10;99.90
13585;DHT22;6863;48.402;9.994;2023-02-17T15:16:09;13.00;99.90
13585;DHT22;6863;48.402;9.994;2023-02-17T15:18:34;13.00;99.90
13585;DHT22;6863;48.402;9.994;2023-02-17T15:21:00;13.10;99.90
13585;DHT22;6863;48.402;9.994;2023-02-17T15:23:29;13.10;99.90
13585;DHT22;6863;48.402;9.994;2023-02-17T15:25:56;13.50;99.80
13585;DHT22;6863;48.402;9.994;2023-02-17T15:28:22;14.20;98.30
13585;DHT22;6863;48.402;9.994;2023-02-17T15:30:50;14.70;97.40
13585;DHT22;6863;48.402;9.994;2023-02-17T15:33:16;14.90;96.80
13585;DHT22;6863;48.402;9.994;2023-02-17T15:35:42;15.30;96.20
13585;DHT22;6863;48.402;9.994;2023-02-17T15:38:13;15.30;95.70
13585;DHT22;6863;48.402;9.994;2023-02-17T15:40:40;14.90;96.30
13585;DHT22;6863;48.402;9.994;2023-02-17T15:43:12;14.80;96.60
13585;DHT22;6863;48.402;9.994;2023-02-17T15:45:39;14.70;96.40
13585;DHT22;6863;48.402;9.994;2023-02-17T15:48:24;14.50;97.00
13585;DHT22;6863;48.402;9.994;2023-02-17T15:50:53;14.20;97.50
13585;DHT22;6863;48.402;9.994;2023-02-17T15:53:19;14.20;97.60
13585;DHT22;6863;48.402;9.994;2023-02-17T15:55:45;14.40;97.40
13585;DHT22;6863;48.402;9.994;2023-02-17T15:58:19;14.10;97.50
13585;DHT22;6863;48.402;9.994;2023-02-17T16:00:46;13.60;98.60
13585;DHT22;6863;48.402;9.994;2023-02-17T16:03:14;13.40;99.00
13585;DHT22;6863;48.402;9.994;2023-02-17T16:05:40;13.20;99.60
13585;DHT22;6863;48.402;9.994;2023-02-17T16:08:06;13.10;99.90
13585;DHT22;6863;48.402;9.994;2023-02-17T16:10:32;12.90;99.90
13585;DHT22;6863;48.402;9.994;2023-02-17T16:12:59;12.80;99.90
13585;DHT22;6863;48.402;9.994;2023-02-17T16:15:26;12.80;99.90
13585;DHT22;6863;48.402;9.994;2023-02-17T16:17:52;12.70;99.90
13585;DHT22;6863;48.402;9.994;2023-02-17T16:20:23;12.60;99.90
13585;DHT22;6863;48.402;9.994;2023-02-17T16:22:49;12.60;99.90
13585;DHT22;6863;48.402;9.994;2023-02-17T16:25:16;12.40;99.90
13585;DHT22;6863;48.402;9.994;2023-02-17T16:27:44;12.30;99.90
13585;DHT22;6863;48.402;9.994;2023-02-17T16:30:51;12.30;99.90
13585;DHT22;6863;48.402;9.994;2023-02-17T16:33:11;12.20;99.90
13585;DHT22;6863;48.402;9.994;2023-02-17T16:35:37;12.10;99.90
13585;DHT22;6863;48.402;9.994;2023-02-17T16:38:22;12.00;99.90
13585;DHT22;6863;48.402;9.994;2023-02-17T16:40:50;11.90;99.90
13585;DHT22;6863;48.402;9.994;2023-02-17T16:43:18;11.90;99.90
13585;DHT22;6863;48.402;9.994;2023-02-17T16:45:56;11.90;99.90
13585;DHT22;6863;48.402;9.994;2023-02-17T16:48:24;11.90;99.90
13585;DHT22;6863;48.402;9.994;2023-02-17T16:50:50;11.90;99.90
13585;DHT22;6863;48.402;9.994;2023-02-17T16:53:16;11.90;99.90
13585;DHT22;6863;48.402;9.994;2023-02-17T16:55:42;11.90;99.90
13585;DHT22;6863;48.402;9.994;2023-02-17T16:58:18;11.90;99.90
13585;DHT22;6863;48.402;9.994;2023-02-17T17:00:46;11.90;99.90
13585;DHT22;6863;48.402;9.994;2023-02-17T17:03:12;11.90;99.90
13585;DHT22;6863;48.402;9.994;2023-02-17T17:05:38;11.80;99.90
13585;DHT22;6863;48.402;9.994;2023-02-17T17:08:05;11.80;99.90
13585;DHT22;6863;48.402;9.994;2023-02-17T17:10:32;11.70;99.90
13585;DHT22;6863;48.402;9.994;2023-02-17T17:12:58;11.60;99.90
13585;DHT22;6863;48.402;9.994;2023-02-17T17:15:25;11.60;99.90
13585;DHT22;6863;48.402;9.994;2023-02-17T17:18:02;11.60;99.90
13585;DHT22;6863;48.402;9.994;2023-02-17T17:20:32;11.50;99.90
13585;DHT22;6863;48.402;9.994;2023-02-17T17:25:28;11.40;99.90
13585;DHT22;6863;48.402;9.994;2023-02-17T17:27:55;11.40;99.90
13585;DHT22;6863;48.402;9.994;2023-02-17T17:30:23;11.40;99.90
13585;DHT22;6863;48.402;9.994;2023-02-17T17:32:49;11.30;99.90
13585;DHT22;6863;48.402;9.994;2023-02-17T17:35:15;11.30;99.90
13585;DHT22;6863;48.402;9.994;2023-02-17T17:37:41;11.30;99.90
13585;DHT22;6863;48.402;9.994;2023-02-17T17:40:09;11.20;99.90
13585;DHT22;6863;48.402;9.994;2023-02-17T17:42:38;11.10;99.90
13585;DHT22;6863;48.402;9.994;2023-02-17T17:45:04;11.00;99.90
13585;DHT22;6863;48.402;9.994;2023-02-17T17:47:30;11.00;99.90
13585;DHT22;6863;48.402;9.994;2023-02-17T17:49:56;10.90;99.90
13585;DHT22;6863;48.402;9.994;2023-02-17T17:52:22;10.90;99.90
13585;DHT22;6863;48.402;9.994;2023-02-17T17:54:48;10.80;99.90
13585;DHT22;6863;48.402;9.994;2023-02-17T17:57:14;10.80;99.90
13585;DHT22;6863;48.402;9.994;2023-02-17T17:59:39;10.70;99.90
13585;DHT22;6863;48.402;9.994;2023-02-17T18:02:08;10.70;99.90
13585;DHT22;6863;48.402;9.994;2023-02-17T18:04:33;10.70;99.90
13585;DHT22;6863;48.402;9.994;2023-02-17T18:06:59;10.70;99.90
13585;DHT22;6863;48.402;9.994;2023-02-17T18:09:29;10.70;99.90
13585;DHT22;6863;48.402;9.994;2023-02-17T18:11:57;10.60;99.90
13585;DHT22;6863;48.402;9.994;2023-02-17T18:14:23;10.50;99.90